Time;durP1;ratioP1;P1;durP2;ratioP2;P2;SDS_P1;SDS_P2;PMS_P1;PMS_P2;Temp;Humidity;BMP_temperature;BMP_pressure;BME280_temperature;BME280_humidity;BME280_pressure;Samples;Min_cycle;Max_cycle;Signal;HPM_P1;HPM_P2
2021/08/26 00:07:52;;;;;;;14.82;8.43;;;;;;;15.71;82.02;101365.63;4989255;28;20374;-72
2021/08/26 00:10:19;;;;;;;13.65;9.48;;;;;;;15.72;81.89;101367.25;4987582;28;20045;-72
2021/08/26 00:12:45;;;;;;;13.93;8.25;;;;;;;15.77;82.03;101359.72;4989783;28;20026;-72
2021/08/26 00:15:10;;;;;;;13.32;7.53;;;;;;;15.69;82.68;101362.38;5002999;28;20488;-72
2021/08/26 00:17:36;;;;;;;16.88;8.88;;;;;;;15.71;82.81;101351.75;4988998;28;20030;-72
2021/08/26 00:20:04;;;;;;;14.52;7.60;;;;;;;15.72;82.77;101354.19;5006288;28;20050;-72
2021/08/26 00:22:29;;;;;;;11.13;7.57;;;;;;;15.64;83.19;101353.44;4991179;28;20080;-73
2021/08/26 00:24:55;;;;;;;11.32;8.18;;;;;;;15.67;83.18;101356.53;4991566;28;20042;-73
2021/08/26 00:27:23;;;;;;;12.23;7.53;;;;;;;15.62;83.37;101351.00;5014718;28;20041;-73
2021/08/26 00:29:49;;;;;;;10.85;7.57;;;;;;;15.73;83.38;101341.94;5005460;28;20034;-72
2021/08/26 00:32:14;;;;;;;11.55;7.78;;;;;;;15.69;83.59;101338.88;5002972;28;20049;-73
2021/08/26 00:34:40;;;;;;;12.45;8.18;;;;;;;15.71;83.86;101338.69;4988221;28;20101;-73
2021/08/26 00:37:06;;;;;;;14.75;8.27;;;;;;;15.61;84.18;101336.28;4987095;28;20042;-73
2021/08/26 00:39:31;;;;;;;12.88;8.13;;;;;;;15.60;84.19;101332.06;4987606;28;20037;-73
2021/08/26 00:41:56;;;;;;;11.70;7.47;;;;;;;15.57;84.64;101321.97;5002694;28;20488;-73
2021/08/26 00:44:22;;;;;;;12.57;7.82;;;;;;;15.46;85.25;101327.59;4987268;28;20230;-72
2021/08/26 00:46:48;;;;;;;12.25;7.63;;;;;;;15.50;85.15;101314.03;4994392;28;20060;-73
2021/08/26 00:49:14;;;;;;;12.35;8.02;;;;;;;15.55;84.94;101311.69;4988601;28;20400;-73
2021/08/26 00:51:41;;;;;;;15.38;8.43;;;;;;;15.56;84.96;101315.13;4992371;28;20077;-73
2021/08/26 00:54:07;;;;;;;11.77;7.85;;;;;;;15.54;85.06;101315.28;4987372;28;20069;-73
2021/08/26 00:56:32;;;;;;;12.00;7.93;;;;;;;15.57;85.38;101317.53;4988643;28;20041;-74
2021/08/26 00:59:00;;;;;;;12.88;7.85;;;;;;;15.53;85.71;101312.84;4992161;28;20034;-73
2021/08/26 01:01:34;;;;;;;14.20;7.22;;;;;;;15.48;85.85;101309.94;5006305;28;20077;-73
2021/08/26 01:04:17;;;;;;;15.48;7.75;;;;;;;15.50;85.83;101314.03;4990780;28;20981;-73
2021/08/26 01:06:52;;;;;;;9.63;6.00;;;;;;;15.62;85.54;101316.22;4990296;28;20250;-74
2021/08/26 01:09:20;;;;;;;12.77;7.50;;;;;;;15.54;85.78;101310.06;5003850;28;20042;-74
2021/08/26 01:11:48;;;;;;;12.27;6.65;;;;;;;15.50;86.35;101300.13;4988269;28;20037;-72
2021/08/26 01:14:15;;;;;;;13.70;7.32;;;;;;;15.50;86.56;101297.50;4989286;28;20030;-72
2021/08/26 01:16:41;;;;;;;13.45;7.07;;;;;;;15.53;86.17;101297.97;4986987;28;20038;-72
2021/08/26 01:19:07;;;;;;;10.80;7.43;;;;;;;15.53;86.52;101294.56;5015370;28;20033;-72
2021/08/26 01:21:33;;;;;;;9.57;6.53;;;;;;;15.51;86.43;101280.84;4990377;28;20041;-73
2021/08/26 01:24:02;;;;;;;10.15;6.93;;;;;;;15.49;86.99;101282.84;4988342;28;20048;-72
2021/08/26 01:26:37;;;;;;;14.48;7.07;;;;;;;15.56;86.69;101276.72;5001990;28;20073;-73
2021/08/26 01:29:05;;;;;;;9.30;6.55;;;;;;;15.53;86.90;101284.09;4990291;28;20075;-72
2021/08/26 01:31:31;;;;;;;10.45;5.78;;;;;;;15.50;86.88;101274.00;5000036;28;20029;-72
2021/08/26 01:33:58;;;;;;;10.00;5.78;;;;;;;15.54;86.80;101275.28;4993089;28;20038;-72
2021/08/26 01:36:27;;;;;;;9.93;5.75;;;;;;;15.58;86.96;101274.75;4982381;28;20034;-71
2021/08/26 01:38:59;;;;;;;9.05;5.13;;;;;;;15.51;86.91;101280.84;5003896;28;20097;-72
2021/08/26 01:41:42;;;;;;;8.77;5.38;;;;;;;15.47;87.56;101271.75;4988962;28;20038;-72
2021/08/26 01:44:09;;;;;;;8.57;5.20;;;;;;;15.51;87.97;101278.25;4992216;28;20038;-74
2021/08/26 01:46:34;;;;;;;8.13;5.30;;;;;;;15.47;88.21;101279.59;5001801;28;20089;-74
2021/08/26 01:49:00;;;;;;;8.30;5.20;;;;;;;15.55;87.48;101271.66;4992352;28;20692;-73
2021/08/26 01:51:25;;;;;;;6.88;4.85;;;;;;;15.51;87.30;101271.22;5001460;28;20062;-75
2021/08/26 01:53:51;;;;;;;7.45;4.72;;;;;;;15.52;87.90;101274.63;5004290;28;20056;-75
2021/08/26 01:56:17;;;;;;;5.25;3.70;;;;;;;15.51;87.93;101270.41;5004471;28;20053;-77
2021/08/26 01:58:42;;;;;;;5.80;4.00;;;;;;;15.51;87.86;101288.69;4992119;28;20038;-76
2021/08/26 02:01:08;;;;;;;7.93;3.17;;;;;;;15.54;87.63;101280.50;5003429;28;20034;-76
2021/08/26 02:03:34;;;;;;;7.57;2.63;;;;;;;15.39;86.42;101283.09;5008200;28;20113;-77
2021/08/26 02:05:59;;;;;;;5.30;2.35;;;;;;;15.30;85.46;101282.31;5003592;28;20038;-77
2021/08/26 02:08:24;;;;;;;8.30;2.30;;;;;;;15.14;85.86;101274.59;5006694;28;20385;-76
2021/08/26 02:10:50;;;;;;;4.43;1.98;;;;;;;15.16;84.66;101280.47;5003337;28;20554;-75
2021/08/26 02:13:15;;;;;;;6.78;2.03;;;;;;;15.09;85.85;101269.91;4993480;28;20400;-77
2021/08/26 02:15:41;;;;;;;8.13;2.38;;;;;;;14.96;85.62;101283.53;5004679;28;20026;-77
2021/08/26 02:18:06;;;;;;;6.93;2.45;;;;;;;15.06;85.53;101280.69;5015325;28;20052;-78
2021/08/26 02:20:32;;;;;;;7.15;2.30;;;;;;;15.07;85.50;101278.91;5006508;28;20038;-78
2021/08/26 02:22:58;;;;;;;7.57;1.77;;;;;;;15.02;85.43;101278.63;5009257;28;20128;-77
2021/08/26 02:25:23;;;;;;;7.13;2.50;;;;;;;14.98;84.88;101278.16;4983370;28;20038;-80
2021/08/26 02:27:49;;;;;;;6.60;2.38;;;;;;;14.88;85.46;101275.78;4994568;28;20030;-77
2021/08/26 02:30:14;;;;;;;7.88;2.20;;;;;;;14.92;85.58;101266.59;4975417;28;20042;-75
2021/08/26 02:32:40;;;;;;;6.35;2.35;;;;;;;14.91;86.12;101275.41;4997458;28;20040;-76
2021/08/26 02:35:07;;;;;;;8.57;2.22;;;;;;;14.96;86.03;101267.88;5000402;28;20415;-76
2021/08/26 02:37:33;;;;;;;7.20;2.67;;;;;;;14.88;86.11;101262.72;4988715;28;20038;-76
2021/08/26 02:39:58;;;;;;;7.43;2.53;;;;;;;14.90;86.32;101265.13;5006139;28;20042;-76
2021/08/26 02:42:24;;;;;;;6.57;2.60;;;;;;;14.91;85.52;101270.19;5002861;28;20042;-77
2021/08/26 02:44:49;;;;;;;5.22;2.42;;;;;;;14.92;85.95;101256.16;5002857;28;20038;-77
2021/08/26 02:47:15;;;;;;;7.65;2.42;;;;;;;14.93;86.24;101259.56;5002327;28;20428;-76
2021/08/26 02:49:40;;;;;;;9.95;2.05;;;;;;;14.98;85.83;101260.69;4987006;28;20069;-77
2021/08/26 02:52:06;;;;;;;9.02;2.47;;;;;;;14.94;86.18;101264.63;4983857;28;20038;-77
2021/08/26 02:54:31;;;;;;;7.07;1.80;;;;;;;14.93;86.52;101265.59;4991363;28;20089;-76
2021/08/26 02:56:57;;;;;;;7.90;2.25;;;;;;;14.93;86.50;101252.53;5005902;28;20042;-77
2021/08/26 02:59:22;;;;;;;7.63;2.42;;;;;;;14.96;86.55;101254.81;5015839;28;20032;-79
2021/08/26 03:01:48;;;;;;;5.75;1.90;;;;;;;14.97;86.82;101256.47;5006439;28;20034;-79
2021/08/26 03:04:13;;;;;;;7.57;2.45;;;;;;;15.06;86.87;101261.63;4995675;28;20492;-77
2021/08/26 03:06:38;;;;;;;8.63;2.55;;;;;;;15.04;86.96;101271.44;5011857;28;20440;-76
2021/08/26 03:09:04;;;;;;;9.18;2.45;;;;;;;15.04;86.93;101263.59;5010480;28;20038;-73
2021/08/26 03:11:29;;;;;;;4.20;2.20;;;;;;;15.02;87.16;101260.34;5014226;28;20022;-78
2021/08/26 03:13:55;;;;;;;6.38;3.38;;;;;;;15.13;86.83;101250.28;5007492;28;20037;-77
2021/08/26 03:16:20;;;;;;;8.35;3.75;;;;;;;15.11;86.51;101261.91;5009586;28;20030;-77
2021/08/26 03:18:46;;;;;;;9.52;3.55;;;;;;;15.06;87.02;101251.16;5020538;28;20041;-76
2021/08/26 03:21:13;;;;;;;9.00;3.85;;;;;;;15.04;86.69;101259.16;4997614;28;20022;-77
2021/08/26 03:23:39;;;;;;;10.63;4.35;;;;;;;15.08;86.60;101254.41;5013884;28;20068;-76
2021/08/26 03:26:04;;;;;;;7.68;3.97;;;;;;;15.05;86.97;101259.97;4989053;28;20034;-76
2021/08/26 03:28:30;;;;;;;10.32;4.18;;;;;;;15.05;86.89;101268.66;4975469;28;20034;-77
2021/08/26 03:30:55;;;;;;;8.18;3.47;;;;;;;15.04;87.29;101258.38;5008554;28;20041;-80
2021/08/26 03:33:21;;;;;;;11.80;4.68;;;;;;;15.04;87.44;101264.41;5013185;28;20025;-79
2021/08/26 03:35:48;;;;;;;9.27;4.03;;;;;;;15.05;87.51;101262.59;5008062;28;20100;-75
2021/08/26 03:38:15;;;;;;;18.85;5.93;;;;;;;15.06;87.62;101266.84;5008600;28;20037;-76
2021/08/26 03:40:40;;;;;;;8.20;4.80;;;;;;;15.16;88.01;101267.41;5004175;28;20101;-77
2021/08/26 03:43:05;;;;;;;10.32;4.18;;;;;;;15.11;87.87;101267.13;5007813;28;20038;-76
2021/08/26 03:45:31;;;;;;;9.20;4.30;;;;;;;15.09;87.78;101262.09;4994756;28;20042;-76
2021/08/26 03:47:56;;;;;;;12.18;4.68;;;;;;;15.10;87.88;101261.06;4973775;28;20034;-77
2021/08/26 03:50:22;;;;;;;12.75;4.55;;;;;;;15.06;87.65;101259.81;5008536;28;20116;-76
2021/08/26 03:52:47;;;;;;;9.43;4.18;;;;;;;15.07;87.77;101258.84;4992143;28;20042;-75
2021/08/26 03:55:13;;;;;;;8.57;4.35;;;;;;;15.10;87.80;101257.66;5007044;28;20054;-76
2021/08/26 03:57:38;;;;;;;9.32;4.38;;;;;;;15.21;87.60;101259.88;5007889;28;20038;-76
2021/08/26 04:00:04;;;;;;;8.35;4.05;;;;;;;15.14;87.14;101258.94;4993586;28;20042;-76
2021/08/26 04:02:30;;;;;;;9.32;4.65;;;;;;;15.12;87.48;101255.69;5008346;28;20415;-76
2021/08/26 04:04:55;;;;;;;7.80;3.88;;;;;;;15.10;87.65;101253.25;4991904;28;20042;-76
2021/08/26 04:07:21;;;;;;;11.85;4.60;;;;;;;15.09;87.85;101254.25;5005265;28;20043;-76
2021/08/26 04:09:47;;;;;;;9.43;4.05;;;;;;;15.13;87.65;101245.06;4991753;28;20041;-77
2021/08/26 04:12:13;;;;;;;8.25;4.00;;;;;;;15.18;87.31;101240.16;4990841;28;20500;-76
2021/08/26 04:14:39;;;;;;;8.15;4.40;;;;;;;15.14;87.45;101251.09;5010479;28;20037;-75
2021/08/26 04:17:05;;;;;;;10.88;4.50;;;;;;;15.12;87.65;101245.25;5003286;28;20132;-76
2021/08/26 04:19:30;;;;;;;14.02;4.78;;;;;;;15.13;87.02;101252.09;5006768;28;20113;-76
2021/08/26 04:21:56;;;;;;;8.98;4.18;;;;;;;15.07;86.87;101253.63;5005357;28;20038;-75
2021/08/26 04:24:21;;;;;;;11.65;4.63;;;;;;;15.15;87.06;101255.34;5000222;28;20045;-76
2021/08/26 04:26:47;;;;;;;9.88;4.13;;;;;;;15.13;86.49;101252.09;5006082;28;20496;-76
2021/08/26 04:29:12;;;;;;;8.27;3.78;;;;;;;15.03;86.89;101257.56;5005660;28;20034;-77
2021/08/26 04:31:38;;;;;;;9.20;3.75;;;;;;;15.05;86.28;101249.53;4999132;28;20031;-76
2021/08/26 04:34:03;;;;;;;9.55;3.85;;;;;;;14.97;84.59;101247.78;5010661;28;20097;-78
2021/08/26 04:36:29;;;;;;;13.00;3.75;;;;;;;14.95;84.93;101247.97;4998725;28;20036;-76
2021/08/26 04:38:54;;;;;;;12.15;3.90;;;;;;;14.92;84.32;101250.94;5001709;28;20355;-76
2021/08/26 04:41:20;;;;;;;18.75;4.38;;;;;;;14.90;84.40;101247.69;4987896;28;20118;-75
2021/08/26 04:43:45;;;;;;;9.05;3.17;;;;;;;14.88;84.98;101243.59;5008806;28;20034;-76
2021/08/26 04:46:11;;;;;;;11.20;3.50;;;;;;;14.88;85.54;101246.22;4989454;28;20026;-76
2021/08/26 04:48:36;;;;;;;10.27;3.55;;;;;;;14.86;85.67;101235.97;5008856;28;20109;-76
2021/08/26 04:51:02;;;;;;;13.98;3.42;;;;;;;14.83;85.87;101240.72;5006360;28;20042;-76
2021/08/26 04:53:29;;;;;;;17.48;4.05;;;;;;;14.90;85.42;101239.84;5010451;28;20041;-75
2021/08/26 04:55:54;;;;;;;14.15;4.20;;;;;;;14.85;85.50;101239.56;4988485;28;20065;-76
2021/08/26 04:58:19;;;;;;;8.90;3.33;;;;;;;14.88;85.76;101239.22;4990134;28;20424;-74
2021/08/26 05:00:45;;;;;;;12.38;3.30;;;;;;;14.83;84.90;101235.50;5010902;28;20582;-78
2021/08/26 05:03:10;;;;;;;11.43;2.95;;;;;;;14.79;84.07;101241.06;4988475;28;20097;-75
2021/08/26 05:05:36;;;;;;;9.55;3.33;;;;;;;14.75;84.24;101231.97;5010646;28;20385;-74
2021/08/26 05:08:01;;;;;;;10.40;3.05;;;;;;;14.79;84.30;101240.25;4991374;28;20133;-75
2021/08/26 05:10:27;;;;;;;14.50;3.50;;;;;;;14.77;84.94;101247.44;5005911;28;20042;-75
2021/08/26 05:12:52;;;;;;;9.80;3.25;;;;;;;14.75;84.97;101242.41;4988841;28;20128;-74
2021/08/26 05:15:18;;;;;;;10.13;3.40;;;;;;;14.83;84.98;101249.38;4989037;28;20046;-75
2021/08/26 05:17:43;;;;;;;10.70;3.20;;;;;;;14.83;84.58;101244.16;4993335;28;20064;-75
2021/08/26 05:20:09;;;;;;;14.95;3.97;;;;;;;14.91;83.71;101249.31;4987604;28;20034;-74
2021/08/26 05:22:35;;;;;;;13.90;3.72;;;;;;;14.81;84.20;101248.72;4991880;28;20117;-75
2021/08/26 05:25:00;;;;;;;11.50;4.10;;;;;;;14.80;84.70;101247.09;5004777;28;20034;-74
2021/08/26 05:27:26;;;;;;;15.48;3.30;;;;;;;14.80;85.03;101257.53;4994202;28;20026;-74
2021/08/26 05:29:51;;;;;;;11.38;4.03;;;;;;;14.78;85.50;101257.69;4987145;28;20046;-75
2021/08/26 05:32:17;;;;;;;11.20;3.22;;;;;;;14.81;85.69;101248.72;5002476;28;20080;-74
2021/08/26 05:34:42;;;;;;;11.35;4.00;;;;;;;14.81;86.03;101248.72;5010092;28;20042;-74
2021/08/26 05:37:09;;;;;;;13.35;4.18;;;;;;;14.87;86.12;101253.25;5008957;28;20061;-74
2021/08/26 05:39:35;;;;;;;13.35;3.83;;;;;;;14.86;86.18;101251.63;4997478;28;20038;-74
2021/08/26 05:42:01;;;;;;;14.02;4.07;;;;;;;14.91;86.32;101253.72;5007278;28;20041;-74
2021/08/26 05:44:27;;;;;;;21.65;4.80;;;;;;;14.95;85.90;101249.75;5001271;28;20160;-74
2021/08/26 05:46:52;;;;;;;11.93;3.63;;;;;;;14.88;86.23;101249.66;4986190;28;20090;-74
2021/08/26 05:49:18;;;;;;;9.50;3.40;;;;;;;14.87;86.43;101260.28;4984787;28;20508;-74
2021/08/26 05:51:43;;;;;;;8.25;2.85;;;;;;;14.85;86.53;101252.59;5003323;28;20034;-74
2021/08/26 05:54:08;;;;;;;13.20;3.40;;;;;;;14.86;86.18;101254.25;4986767;28;20038;-74
2021/08/26 05:56:34;;;;;;;13.25;4.25;;;;;;;14.98;85.73;101260.69;5003799;28;20672;-74
2021/08/26 05:58:59;;;;;;;12.07;3.72;;;;;;;14.97;85.76;101255.63;5002599;28;20034;-74
2021/08/26 06:01:30;;;;;;;13.15;3.10;;;;;;;14.94;85.70;101245.56;5008670;28;20042;-73
2021/08/26 06:03:56;;;;;;;11.18;3.53;;;;;;;14.93;85.97;101249.94;4990013;28;20031;-74
2021/08/26 06:06:21;;;;;;;16.17;3.63;;;;;;;14.92;85.99;101256.16;4991432;28;20384;-74
2021/08/26 06:08:48;;;;;;;17.45;3.67;;;;;;;14.95;85.60;101258.41;5004704;28;20381;-74
2021/08/26 06:11:14;;;;;;;13.82;3.65;;;;;;;14.96;85.96;101261.84;4970501;28;20547;-73
2021/08/26 06:13:39;;;;;;;10.00;3.58;;;;;;;14.95;85.82;101258.41;4987949;28;20125;-73
2021/08/26 06:16:05;;;;;;;13.15;3.92;;;;;;;15.04;85.57;101256.56;4991573;28;20034;-73
2021/08/26 06:18:30;;;;;;;15.73;3.83;;;;;;;15.03;85.50;101264.56;4990855;28;20042;-73
2021/08/26 06:20:56;;;;;;;15.85;4.05;;;;;;;15.01;85.05;101258.69;4991891;28;20038;-73
2021/08/26 06:23:21;;;;;;;14.55;3.65;;;;;;;14.97;85.38;101258.25;4992137;28;20040;-73
2021/08/26 06:25:47;;;;;;;16.40;5.00;;;;;;;15.07;84.46;101250.16;4989687;28;21524;-73
2021/08/26 06:28:13;;;;;;;14.30;3.60;;;;;;;15.09;83.71;101256.84;4992151;28;20192;-73
2021/08/26 06:30:39;;;;;;;13.07;3.53;;;;;;;15.09;83.54;101256.84;4995510;28;20540;-73
2021/08/26 06:33:04;;;;;;;13.68;3.67;;;;;;;15.08;83.26;101257.03;5006113;28;20100;-73
2021/08/26 06:35:31;;;;;;;14.07;4.55;;;;;;;15.11;83.10;101265.31;5007066;28;20046;-73
2021/08/26 06:37:57;;;;;;;16.17;3.70;;;;;;;15.06;83.40;101257.19;4984638;28;20109;-73
2021/08/26 06:40:22;;;;;;;17.15;4.20;;;;;;;15.11;82.68;101257.50;4985627;28;20034;-73
2021/08/26 06:42:48;;;;;;;22.30;4.63;;;;;;;15.07;83.13;101264.06;5000073;28;20490;-73
2021/08/26 06:45:13;;;;;;;11.38;3.35;;;;;;;15.18;82.50;101257.59;5000780;28;20389;-73
2021/08/26 06:47:38;;;;;;;18.55;4.57;;;;;;;15.16;82.21;101255.19;5000270;28;20065;-73
2021/08/26 06:50:04;;;;;;;15.07;3.83;;;;;;;15.13;81.80;101250.28;4986581;28;20554;-73
2021/08/26 06:52:30;;;;;;;18.40;4.45;;;;;;;15.06;82.70;101248.56;4986253;28;20081;-73
2021/08/26 06:54:55;;;;;;;15.50;3.78;;;;;;;15.08;82.66;101255.22;4986433;28;20511;-73
2021/08/26 06:57:21;;;;;;;20.35;4.00;;;;;;;15.08;81.29;101249.19;5009261;28;20025;-73
2021/08/26 06:59:46;;;;;;;17.38;4.95;;;;;;;15.12;81.61;101268.75;5006147;28;20084;-73
2021/08/26 07:02:12;;;;;;;18.95;3.97;;;;;;;15.18;81.67;101271.50;5004237;28;20291;-72
2021/08/26 07:04:38;;;;;;;11.98;3.47;;;;;;;15.18;81.60;101262.81;4985337;28;20042;-73
2021/08/26 07:07:03;;;;;;;15.77;3.42;;;;;;;15.14;80.53;101272.81;4985938;28;20042;-73
2021/08/26 07:09:29;;;;;;;33.28;10.65;;;;;;;15.17;79.19;101266.44;4984487;28;20369;-73
2021/08/26 07:11:54;;;;;;;17.70;3.60;;;;;;;15.21;79.24;101269.50;5001141;28;20077;-73
2021/08/26 07:14:20;;;;;;;17.30;3.92;;;;;;;15.29;79.27;101272.03;5002817;28;20495;-72
2021/08/26 07:16:45;;;;;;;11.35;3.03;;;;;;;15.36;77.91;101278.19;5002787;28;20053;-73
2021/08/26 07:19:11;;;;;;;13.80;3.20;;;;;;;15.44;77.56;101274.72;5002258;28;20125;-73
2021/08/26 07:21:37;;;;;;;18.67;3.88;;;;;;;15.48;78.70;101265.53;5001519;28;20034;-73
2021/08/26 07:24:02;;;;;;;12.60;3.58;;;;;;;15.44;78.90;101256.41;4998589;28;20045;-71
2021/08/26 07:26:28;;;;;;;18.90;3.28;;;;;;;15.42;78.44;101261.00;4984476;28;20595;-74
2021/08/26 07:28:55;;;;;;;17.23;3.03;;;;;;;15.51;78.81;101263.38;5000986;28;20042;-73
2021/08/26 07:31:22;;;;;;;21.67;4.30;;;;;;;15.46;78.50;101263.06;5002078;28;20034;-72
2021/08/26 07:33:47;;;;;;;14.70;4.03;;;;;;;15.53;78.35;101264.00;4995094;28;20026;-73
2021/08/26 07:36:13;;;;;;;15.43;4.22;;;;;;;15.58;77.26;101271.31;4985769;28;20605;-71
2021/08/26 07:38:38;;;;;;;15.93;3.00;;;;;;;15.78;76.95;101269.03;4985548;28;20411;-75
2021/08/26 07:41:04;;;;;;;13.57;2.90;;;;;;;15.95;77.02;101265.28;5001693;28;20411;-73
2021/08/26 07:43:31;;;;;;;14.23;2.70;;;;;;;16.17;76.18;101264.53;5000569;28;20034;-73
2021/08/26 07:45:57;;;;;;;13.38;3.40;;;;;;;16.43;74.56;101262.25;4984502;28;20044;-73
2021/08/26 07:48:23;;;;;;;17.10;3.10;;;;;;;16.50;73.90;101257.91;5003445;28;20137;-72
2021/08/26 07:50:49;;;;;;;14.77;3.28;;;;;;;16.44;73.58;101256.00;4985461;28;20121;-73
2021/08/26 07:53:15;;;;;;;13.80;3.80;;;;;;;16.50;74.15;101259.69;4985308;28;20156;-72
2021/08/26 07:55:41;;;;;;;15.52;3.70;;;;;;;16.61;73.45;101266.28;5000173;28;20124;-73
2021/08/26 07:58:06;;;;;;;22.52;4.03;;;;;;;17.80;70.10;101256.06;4999871;28;20026;-72
2021/08/26 08:00:32;;;;;;;18.17;3.92;;;;;;;18.20;67.43;101247.59;4986239;28;20032;-73
2021/08/26 08:02:57;;;;;;;19.70;4.03;;;;;;;18.70;67.29;101245.53;4987241;28;20034;-74
2021/08/26 08:05:23;;;;;;;14.02;4.90;;;;;;;18.75;64.77;101243.13;4993070;28;20120;-71
2021/08/26 08:07:49;;;;;;;12.50;4.00;;;;;;;19.05;63.69;101237.53;5003838;28;20030;-72
2021/08/26 08:10:15;;;;;;;16.80;3.53;;;;;;;18.85;64.89;101238.34;4987169;28;20038;-71
2021/08/26 08:12:41;;;;;;;15.38;3.25;;;;;;;18.59;65.15;101244.31;4986232;28;20026;-72
2021/08/26 08:15:08;;;;;;;16.20;3.90;;;;;;;18.31;65.97;101238.34;4982408;28;20065;-73
2021/08/26 08:17:34;;;;;;;18.75;2.92;;;;;;;18.09;65.10;101241.09;5002696;28;20030;-72
2021/08/26 08:19:59;;;;;;;11.30;2.90;;;;;;;17.85;65.17;101231.88;4986687;28;20511;-73
2021/08/26 08:22:25;;;;;;;12.95;2.85;;;;;;;17.66;66.73;101239.41;5009465;28;20120;-72
2021/08/26 08:24:50;;;;;;;11.45;2.42;;;;;;;17.55;66.83;101247.81;4988602;28;20042;-72
2021/08/26 08:27:16;;;;;;;14.95;2.63;;;;;;;17.38;68.31;101251.72;5012641;28;20034;-72
2021/08/26 08:29:41;;;;;;;11.75;2.50;;;;;;;17.19;68.76;101259.22;4993452;28;20030;-73
2021/08/26 08:32:07;;;;;;;6.50;1.90;;;;;;;17.24;68.62;101249.00;4998952;28;20038;-72
2021/08/26 08:34:32;;;;;;;10.18;2.03;;;;;;;17.46;66.93;101247.16;5008399;28;20046;-72
2021/08/26 08:36:58;;;;;;;7.13;1.80;;;;;;;17.56;67.81;101248.63;4988999;28;20444;-72
2021/08/26 08:39:24;;;;;;;9.45;1.92;;;;;;;17.56;66.63;101254.69;4999374;28;20026;-72
2021/08/26 08:41:49;;;;;;;14.25;2.30;;;;;;;17.55;67.82;101245.19;4983736;28;20725;-72
2021/08/26 08:44:15;;;;;;;10.57;2.58;;;;;;;17.34;67.94;101255.72;4982753;28;20045;-72
2021/08/26 08:46:46;;;;;;;11.35;2.35;;;;;;;17.21;67.89;101262.47;4987501;28;20037;-71
2021/08/26 08:49:12;;;;;;;8.65;2.25;;;;;;;16.93;70.66;101265.84;4992040;28;20030;-73
2021/08/26 08:51:39;;;;;;;12.50;1.88;;;;;;;16.93;69.80;101260.63;4983999;28;20097;-71
2021/08/26 08:54:05;;;;;;;7.10;2.00;;;;;;;17.00;70.22;101270.34;4999345;28;20497;-72
2021/08/26 08:56:31;;;;;;;9.27;1.80;;;;;;;17.14;69.66;101264.22;4986468;28;20496;-72
2021/08/26 08:58:58;;;;;;;9.77;2.15;;;;;;;17.25;71.20;101261.09;4982953;28;20037;-72
2021/08/26 09:01:24;;;;;;;8.13;2.28;;;;;;;17.34;71.22;101267.00;5004630;28;20042;-72
2021/08/26 09:03:49;;;;;;;9.13;2.00;;;;;;;17.18;71.03;101252.38;4983727;28;20042;-71
2021/08/26 09:06:15;;;;;;;10.82;2.65;;;;;;;16.89;71.79;101250.69;4997425;28;20066;-72
2021/08/26 09:08:41;;;;;;;15.50;3.22;;;;;;;17.14;73.48;101259.00;4980147;28;20396;-72
2021/08/26 09:11:21;;;;;;;10.73;2.33;;;;;;;16.98;73.51;101249.56;4980473;28;20089;-72
2021/08/26 09:13:47;;;;;;;10.10;2.63;;;;;;;17.05;73.85;101242.59;4983510;28;20081;-73
2021/08/26 09:16:14;;;;;;;13.55;3.53;;;;;;;18.01;71.92;101241.28;4985579;28;20034;-73
2021/08/26 09:18:40;;;;;;;13.75;3.10;;;;;;;18.71;69.73;101238.47;4999231;28;20278;-73
2021/08/26 09:21:13;;;;;;;16.00;4.45;;;;;;;18.61;67.56;101231.78;4983882;28;20073;-73
2021/08/26 09:23:54;;;;;;;13.93;2.53;;;;;;;18.47;67.44;101230.13;4980068;28;20056;-72
2021/08/26 09:26:23;;;;;;;14.00;3.20;;;;;;;18.93;67.41;101228.63;4999207;28;20684;-72
2021/08/26 09:28:50;;;;;;;12.55;2.92;;;;;;;19.04;67.24;101228.03;4990258;28;20052;-72
2021/08/26 09:31:18;;;;;;;10.90;2.97;;;;;;;18.85;66.30;101227.81;4991389;28;20052;-73
2021/08/26 09:34:04;;;;;;;13.45;2.58;;;;;;;18.37;66.92;101234.94;5004402;28;20046;-72
2021/08/26 09:36:34;;;;;;;10.88;2.42;;;;;;;18.18;68.97;101236.50;4987522;28;20279;-74
2021/08/26 09:39:16;;;;;;;15.98;2.92;;;;;;;17.76;71.24;101240.88;5004649;28;20214;-74
2021/08/26 09:42:13;;;;;;;11.45;3.13;;;;;;;17.58;73.05;101236.94;5003563;28;20077;-73
2021/08/26 09:44:39;;;;;;;9.93;2.53;;;;;;;17.61;73.13;101246.22;5003952;28;20048;-74
2021/08/26 09:47:06;;;;;;;9.88;2.35;;;;;;;17.52;72.60;101240.34;4990761;28;20038;-72
2021/08/26 09:49:37;;;;;;;15.15;3.22;;;;;;;17.66;72.17;101230.75;4989543;28;20027;-73
2021/08/26 09:52:05;;;;;;;7.88;2.47;;;;;;;17.67;72.30;101235.00;4992147;28;20085;-73
2021/08/26 09:54:37;;;;;;;10.25;3.38;;;;;;;17.80;72.86;101235.06;4989057;28;20038;-72
2021/08/26 09:57:06;;;;;;;28.73;3.38;;;;;;;17.97;70.72;101232.97;4985420;28;20044;-73
2021/08/26 09:59:42;;;;;;;15.02;2.53;;;;;;;18.08;71.42;101236.84;4989233;28;20113;-72
2021/08/26 10:02:08;;;;;;;9.48;2.40;;;;;;;18.04;69.50;101231.16;4989017;28;20049;-72
2021/08/26 10:04:34;;;;;;;8.10;2.17;;;;;;;18.44;68.94;101226.09;4999246;28;20038;-72
2021/08/26 10:07:00;;;;;;;6.72;1.58;;;;;;;19.02;67.50;101227.41;4987960;28;20408;-73
2021/08/26 10:09:26;;;;;;;7.45;1.63;;;;;;;19.39;64.80;101233.09;4996207;28;20042;-72
2021/08/26 10:11:52;;;;;;;6.32;1.80;;;;;;;19.36;64.29;101233.47;5005935;28;20034;-72
2021/08/26 10:14:18;;;;;;;8.45;2.03;;;;;;;19.03;66.31;101235.09;4992150;28;20029;-72
2021/08/26 10:16:45;;;;;;;6.50;1.75;;;;;;;18.52;67.57;101237.44;4991024;28;20412;-71
2021/08/26 10:19:15;;;;;;;16.27;1.80;;;;;;;18.21;69.88;101229.00;4999494;28;20047;-73
2021/08/26 10:21:45;;;;;;;6.03;1.60;;;;;;;18.04;69.80;101244.28;5000730;28;20523;-74
2021/08/26 10:24:14;;;;;;;12.45;1.50;;;;;;;17.84;70.35;101238.94;4987239;28;20432;-73
2021/08/26 10:26:46;;;;;;;5.15;1.55;;;;;;;17.97;71.08;101243.47;4989505;28;20042;-73
2021/08/26 10:29:14;;;;;;;6.53;1.57;;;;;;;18.11;70.48;101235.66;5004177;28;20031;-74
2021/08/26 10:31:40;;;;;;;4.47;1.70;;;;;;;18.26;70.49;101238.94;5001287;28;20884;-72
2021/08/26 10:34:23;;;;;;;6.40;1.65;;;;;;;18.32;70.37;101235.53;4992184;28;20030;-73
2021/08/26 10:36:54;;;;;;;5.63;1.98;;;;;;;18.32;70.11;101238.16;4991803;28;20034;-73
2021/08/26 10:39:32;;;;;;;9.40;2.05;;;;;;;18.18;70.28;101241.75;5000343;28;20042;-73
2021/08/26 10:42:21;;;;;;;7.20;1.52;;;;;;;17.85;69.21;101251.03;4993112;28;20436;-73
2021/08/26 10:45:09;;;;;;;8.30;1.83;;;;;;;18.01;69.48;101249.13;4983445;28;20073;-73
2021/08/26 10:47:47;;;;;;;10.15;1.90;;;;;;;17.95;69.79;101247.25;4981820;28;20031;-74
2021/08/26 10:50:17;;;;;;;9.07;1.63;;;;;;;18.00;70.16;101248.31;4980333;28;20050;-71
2021/08/26 10:53:07;;;;;;;8.05;1.75;;;;;;;17.99;70.23;101235.38;4982920;28;20038;-73
2021/08/26 10:55:39;;;;;;;8.23;1.85;;;;;;;18.19;70.14;101231.03;4995461;28;20052;-73
2021/08/26 10:58:23;;;;;;;6.85;1.48;;;;;;;18.21;68.74;101236.88;4984423;28;20092;-72
2021/08/26 11:00:54;;;;;;;9.18;1.83;;;;;;;18.38;69.86;101239.19;4995361;28;20037;-73
2021/08/26 11:03:32;;;;;;;5.80;1.67;;;;;;;18.46;68.71;101239.81;4993143;28;20045;-73
2021/08/26 11:05:58;;;;;;;4.80;1.45;;;;;;;18.71;68.46;101241.91;4982223;28;20038;-73
2021/08/26 11:08:33;;;;;;;7.38;1.92;;;;;;;18.72;66.76;101235.63;4995707;28;20030;-73
2021/08/26 11:11:24;;;;;;;4.13;1.90;;;;;;;18.87;68.35;101243.38;4981943;28;20030;-74
2021/08/26 11:13:50;;;;;;;14.00;2.15;;;;;;;19.23;66.54;101232.50;4983526;28;20049;-74
2021/08/26 11:16:24;;;;;;;3.92;1.60;;;;;;;19.39;65.35;101238.34;4986799;28;20471;-73
2021/08/26 11:19:19;;;;;;;8.20;2.00;;;;;;;19.29;64.17;101240.56;4985846;28;20026;-72
2021/08/26 11:21:47;;;;;;;6.45;1.63;;;;;;;19.28;64.67;101239.75;4984173;28;20408;-73
2021/08/26 11:24:12;;;;;;;13.93;3.28;;;;;;;19.57;64.04;101238.53;5000508;28;20117;-72
2021/08/26 11:26:51;;;;;;;10.25;2.80;;;;;;;19.28;63.22;101249.47;4986082;28;20046;-71